Gesamt
Alfred Hospital Heliport Airport (Alfred, Victoria) YAFD Wetter
There is no TAF data available at YAFD. Showing TAF data for YMEN (9 mi NW).
MEB Terminal Area Forecast (keine Daten für YAFD)
| Here is the undecoded forecast: 2026/08/31 21:26 YMEN 312126Z 3121/0112 01014KT CAVOK FM312300 01018G28KT CAVOK BECMG 0102/0103 01025G42KT CAVOK FM010500 01018G28KT CAVOK FM010700 34012KT CAVOK FM010900 30010KT 9999 -RA NSC RMK FM312100 SEV TURB BLW 5000FT TL010400 FM010400 MOD TURB BLW 5000FT TL011100 T 12 17 21 21 Q 1020 1018 1014 1012 |
There is no METAR data available at YAFD. Showing METAR data for YMEN (9 mi NW).
Aktueller METAR-Verlauf MEB (keine Daten für YAFD)
| Date | Time (AEST) | Flight Rules | Wind Dir. | Speed | Type | Height AGL (ft) | Visibility | Temp (°C) | Temp (°F) | Dew Point (°C) | Dew Point (°F) | Rel. Humid. | Pressure | Density Altitude | Remarks |
|---|---|---|---|---|---|---|---|---|---|---|---|---|---|---|---|
| 01-Sep | 15:00 | VFR | 350° | 23 kt | 10000 meters | 21° | 69° | 7° | 44° | 40% | 1013 mb | 1.008 ft | |||
| 01-Sep | 14:03 | VFR | 350° | 21 kt | 10000 meters | 21° | 69° | 8° | 46° | 43% | 1014 mb | 979 ft | Wind gusting to 31 KT | ||
| 01-Sep | 13:00 | VFR | 350° | 19 kt | 10000 meters | 21° | 69° | 7° | 44° | 40% | 1015 mb | 949 ft | |||
| 01-Sep | 12:00 | VFR | 350° | 22 kt | 10000 meters | 21° | 69° | 7° | 44° | 40% | 1017 mb | 890 ft | |||
| 01-Sep | 11:04 | VFR | 360° | 17 kt | 10000 meters | 19° | 66° | 9° | 48° | 52% | 1017 mb | 650 ft | Wind gusting to 31 KT | ||
| 01-Sep | 10:05 | VFR | 10° | 21 kt | 10000 meters | 17° | 62° | 9° | 48° | 59% | 1018 mb | 380 ft | Wind gusting to 34 KT | ||
| 01-Sep | 09:00 | VFR | 20° | 15 kt | 10000 meters | 15° | 59° | 10° | 50° | 72% | 1020 mb | 81 ft | |||
| 01-Sep | 08:00 | VFR | 360° | 13 kt | 10000 meters | 14° | 57° | 10° | 50° | 77% | 1021 mb | -68 ft | |||
| 01-Sep | 07:00 | VFR | 10° | 13 kt | 10000 meters | 12° | 53° | 10° | 50° | 88% | 1020 mb | -279 ft | |||
| 01-Sep | 06:00 | VFR | 10° | 12 kt | 10000 meters | 13° | 55° | 10° | 50° | 82% | 1020 mb | -159 ft | |||
| 01-Sep | 05:00 | VFR | 20° | 12 kt | 10000 meters | 13° | 55° | 11° | 51° | 88% | 1021 mb | -188 ft | |||
| 01-Sep | 04:00 | VFR | 360° | 13 kt | 10000 meters | 13° | 55° | 11° | 51° | 88% | 1021 mb | -188 ft | |||
| 01-Sep | 03:00 | VFR | 360° | 11 kt | 10000 meters | 13° | 55° | 11° | 51° | 88% | 1022 mb | -218 ft | |||
| 01-Sep | 02:00 | VFR | 360° | 7 kt | 10000 meters | 13° | 55° | 11° | 51° | 88% | 1023 mb | -247 ft | |||
| 01-Sep | 01:00 | VFR | 360° | 9 kt | 10000 meters | 13° | 55° | 10° | 50° | 82% | 1023 mb | -247 ft | |||
| 01-Sep | 00:00 | VFR | 360° | 12 kt | 10000 meters | 13° | 55° | 10° | 50° | 82% | 1024 mb | -277 ft | |||
| 31-Aug | 23:00 | VFR | 360° | 10 kt | 10000 meters | 12° | 53° | 9° | 48° | 82% | 1025 mb | -426 ft | |||
| 31-Aug | 22:00 | VFR | 360° | 9 kt | 10000 meters | 13° | 55° | 8° | 46° | 72% | 1026 mb | -336 ft | |||
| 31-Aug | 21:00 | VFR | 190° | 4 kt | 10000 meters | 12° | 53° | 9° | 48° | 82% | 1026 mb | -456 ft | |||
| 31-Aug | 20:00 | VFR | Calm | 10000 meters | 12° | 53° | 8° | 46° | 76% | 1026 mb | -456 ft | ||||
| 31-Aug | 19:00 | VFR | 190° | 3 kt | 10000 meters | 12° | 53° | 8° | 46° | 76% | 1027 mb | -485 ft | |||
| 31-Aug | 18:00 | VFR | 190° | 3 kt | 10000 meters | 14° | 57° | 9° | 48° | 72% | 1027 mb | -245 ft | |||
| 31-Aug | 17:00 | VFR | 180° | 5 kt | 10000 meters | 17° | 62° | 10° | 50° | 63% | 1027 mb | 115 ft | |||
| 31-Aug | 16:00 | VFR | 180° | 6 kt | 10000 meters | 18° | 64° | 9° | 48° | 56% | 1027 mb | 235 ft |
Anmelden
| Ihr Browser wird nicht unterstützt. aktualisieren Sie Ihren Browser |
